sensor_id;sensor_type;location;lat;lon;timestamp;temperature;humidity
69009;SHT31;56065;52.472;13.380;2023-12-14T00:00:25;7.49;91.54
69009;SHT31;56065;52.472;13.380;2023-12-14T00:02:50;7.42;91.52
69009;SHT31;56065;52.472;13.380;2023-12-14T00:05:15;7.34;91.47
69009;SHT31;56065;52.472;13.380;2023-12-14T00:07:41;7.36;91.30
69009;SHT31;56065;52.472;13.380;2023-12-14T00:10:07;7.37;91.41
69009;SHT31;56065;52.472;13.380;2023-12-14T00:12:32;7.23;91.60
69009;SHT31;56065;52.472;13.380;2023-12-14T00:14:57;7.27;91.47
69009;SHT31;56065;52.472;13.380;2023-12-14T00:17:23;7.30;91.70
69009;SHT31;56065;52.472;13.380;2023-12-14T00:19:48;7.29;91.41
69009;SHT31;56065;52.472;13.380;2023-12-14T00:22:13;7.37;91.45
69009;SHT31;56065;52.472;13.380;2023-12-14T00:24:39;7.37;91.31
69009;SHT31;56065;52.472;13.380;2023-12-14T00:27:04;7.33;91.45
69009;SHT31;56065;52.472;13.380;2023-12-14T00:29:29;7.26;91.65
69009;SHT31;56065;52.472;13.380;2023-12-14T00:31:55;7.24;91.79
69009;SHT31;56065;52.472;13.380;2023-12-14T00:34:20;7.26;91.47
69009;SHT31;56065;52.472;13.380;2023-12-14T00:36:46;7.16;91.50
69009;SHT31;56065;52.472;13.380;2023-12-14T00:39:11;7.19;91.39
69009;SHT31;56065;52.472;13.380;2023-12-14T00:41:36;7.13;91.34
69009;SHT31;56065;52.472;13.380;2023-12-14T00:44:02;7.19;91.56
69009;SHT31;56065;52.472;13.380;2023-12-14T00:46:27;7.06;91.40
69009;SHT31;56065;52.472;13.380;2023-12-14T00:48:53;7.16;91.33
69009;SHT31;56065;52.472;13.380;2023-12-14T00:51:18;7.13;91.30
69009;SHT31;56065;52.472;13.380;2023-12-14T00:53:43;7.01;91.62
69009;SHT31;56065;52.472;13.380;2023-12-14T00:56:09;7.03;91.68
69009;SHT31;56065;52.472;13.380;2023-12-14T00:58:34;7.01;91.63
69009;SHT31;56065;52.472;13.380;2023-12-14T01:01:00;6.93;91.61
69009;SHT31;56065;52.472;13.380;2023-12-14T01:03:25;7.01;91.56
69009;SHT31;56065;52.472;13.380;2023-12-14T01:05:50;7.02;91.60
69009;SHT31;56065;52.472;13.380;2023-12-14T01:08:16;7.03;91.73
69009;SHT31;56065;52.472;13.380;2023-12-14T01:10:42;6.99;91.55
69009;SHT31;56065;52.472;13.380;2023-12-14T01:13:08;7.03;91.69
69009;SHT31;56065;52.472;13.380;2023-12-14T01:15:33;7.10;91.46
69009;SHT31;56065;52.472;13.380;2023-12-14T01:17:58;7.16;91.40
69009;SHT31;56065;52.472;13.380;2023-12-14T01:20:24;7.12;91.53
69009;SHT31;56065;52.472;13.380;2023-12-14T01:22:49;7.18;91.18
69009;SHT31;56065;52.472;13.380;2023-12-14T01:25:15;7.23;91.43
69009;SHT31;56065;52.472;13.380;2023-12-14T01:27:40;7.22;91.28
69009;SHT31;56065;52.472;13.380;2023-12-14T01:30:06;7.16;91.23
69009;SHT31;56065;52.472;13.380;2023-12-14T01:32:31;7.22;91.19
69009;SHT31;56065;52.472;13.380;2023-12-14T01:34:57;7.13;91.28
69009;SHT31;56065;52.472;13.380;2023-12-14T01:37:22;7.09;90.95
69009;SHT31;56065;52.472;13.380;2023-12-14T01:39:48;7.03;91.13
69009;SHT31;56065;52.472;13.380;2023-12-14T01:42:13;7.01;91.21
69009;SHT31;56065;52.472;13.380;2023-12-14T01:44:38;7.05;91.06
69009;SHT31;56065;52.472;13.380;2023-12-14T01:47:04;6.99;91.13
69009;SHT31;56065;52.472;13.380;2023-12-14T01:49:29;7.01;91.20
69009;SHT31;56065;52.472;13.380;2023-12-14T01:51:54;6.91;91.10
69009;SHT31;56065;52.472;13.380;2023-12-14T01:54:20;6.82;91.10
69009;SHT31;56065;52.472;13.380;2023-12-14T01:56:45;6.82;91.23
69009;SHT31;56065;52.472;13.380;2023-12-14T01:59:11;6.78;91.23
69009;SHT31;56065;52.472;13.380;2023-12-14T02:01:43;6.67;91.37
69009;SHT31;56065;52.472;13.380;2023-12-14T02:04:08;6.71;91.33
69009;SHT31;56065;52.472;13.380;2023-12-14T02:06:34;6.81;91.35
69009;SHT31;56065;52.472;13.380;2023-12-14T02:09:00;6.64;91.32
69009;SHT31;56065;52.472;13.380;2023-12-14T02:11:26;6.67;91.16
69009;SHT31;56065;52.472;13.380;2023-12-14T02:13:51;6.71;91.09
69009;SHT31;56065;52.472;13.380;2023-12-14T02:16:16;6.75;91.15
69009;SHT31;56065;52.472;13.380;2023-12-14T02:18:42;6.78;91.18
69009;SHT31;56065;52.472;13.380;2023-12-14T02:21:07;6.71;91.06
69009;SHT31;56065;52.472;13.380;2023-12-14T02:23:32;6.77;90.92
69009;SHT31;56065;52.472;13.380;2023-12-14T02:25:59;6.61;91.26
69009;SHT31;56065;52.472;13.380;2023-12-14T02:28:24;6.58;90.97
69009;SHT31;56065;52.472;13.380;2023-12-14T02:30:50;6.48;90.97
69009;SHT31;56065;52.472;13.380;2023-12-14T02:33:15;6.60;90.81
69009;SHT31;56065;52.472;13.380;2023-12-14T02:35:42;6.54;90.76
69009;SHT31;56065;52.472;13.380;2023-12-14T02:38:07;6.61;90.87
69009;SHT31;56065;52.472;13.380;2023-12-14T02:40:32;6.60;91.12
69009;SHT31;56065;52.472;13.380;2023-12-14T02:42:58;6.60;90.70
69009;SHT31;56065;52.472;13.380;2023-12-14T02:45:23;6.55;90.57
69009;SHT31;56065;52.472;13.380;2023-12-14T02:47:51;6.52;90.83
69009;SHT31;56065;52.472;13.380;2023-12-14T02:50:19;6.48;90.83
69009;SHT31;56065;52.472;13.380;2023-12-14T02:52:44;6.50;90.99
69009;SHT31;56065;52.472;13.380;2023-12-14T02:55:09;6.50;91.20
69009;SHT31;56065;52.472;13.380;2023-12-14T02:57:35;6.50;91.23
69009;SHT31;56065;52.472;13.380;2023-12-14T03:00:00;6.48;91.05
69009;SHT31;56065;52.472;13.380;2023-12-14T03:02:25;6.51;91.16
69009;SHT31;56065;52.472;13.380;2023-12-14T03:04:51;6.50;91.11
69009;SHT31;56065;52.472;13.380;2023-12-14T03:07:16;6.52;90.99
69009;SHT31;56065;52.472;13.380;2023-12-14T03:09:41;6.54;91.10
69009;SHT31;56065;52.472;13.380;2023-12-14T03:12:09;6.47;91.01
69009;SHT31;56065;52.472;13.380;2023-12-14T03:14:34;6.33;91.18
69009;SHT31;56065;52.472;13.380;2023-12-14T03:17:00;6.23;91.38
69009;SHT31;56065;52.472;13.380;2023-12-14T03:19:26;6.23;91.54
69009;SHT31;56065;52.472;13.380;2023-12-14T03:21:51;6.29;91.31
69009;SHT31;56065;52.472;13.380;2023-12-14T03:24:17;6.45;91.32
69009;SHT31;56065;52.472;13.380;2023-12-14T03:26:42;6.47;91.10
69009;SHT31;56065;52.472;13.380;2023-12-14T03:29:08;6.47;91.22
69009;SHT31;56065;52.472;13.380;2023-12-14T03:31:34;6.34;91.15
69009;SHT31;56065;52.472;13.380;2023-12-14T03:34:00;6.31;91.37
69009;SHT31;56065;52.472;13.380;2023-12-14T03:36:25;6.27;91.42
69009;SHT31;56065;52.472;13.380;2023-12-14T03:38:52;6.33;91.58
69009;SHT31;56065;52.472;13.380;2023-12-14T03:41:18;6.40;91.22
69009;SHT31;56065;52.472;13.380;2023-12-14T03:43:43;6.40;91.28
69009;SHT31;56065;52.472;13.380;2023-12-14T03:46:09;6.37;91.21
69009;SHT31;56065;52.472;13.380;2023-12-14T03:48:34;6.45;91.24
69009;SHT31;56065;52.472;13.380;2023-12-14T03:51:04;6.50;91.07
69009;SHT31;56065;52.472;13.380;2023-12-14T03:53:30;6.51;91.09
69009;SHT31;56065;52.472;13.380;2023-12-14T03:55:55;6.55;90.90
69009;SHT31;56065;52.472;13.380;2023-12-14T03:58:20;6.40;91.22
69009;SHT31;56065;52.472;13.380;2023-12-14T04:00:46;6.41;91.08
69009;SHT31;56065;52.472;13.380;2023-12-14T04:03:11;6.34;91.35
69009;SHT31;56065;52.472;13.380;2023-12-14T04:05:37;6.47;91.61
69009;SHT31;56065;52.472;13.380;2023-12-14T04:08:03;6.55;91.31
69009;SHT31;56065;52.472;13.380;2023-12-14T04:10:29;6.51;91.02
69009;SHT31;56065;52.472;13.380;2023-12-14T04:12:55;6.55;91.01
69009;SHT31;56065;52.472;13.380;2023-12-14T04:15:20;6.54;91.05
69009;SHT31;56065;52.472;13.380;2023-12-14T04:17:45;6.51;91.00
69009;SHT31;56065;52.472;13.380;2023-12-14T04:20:13;6.48;91.19
69009;SHT31;56065;52.472;13.380;2023-12-14T04:22:38;6.54;91.23
69009;SHT31;56065;52.472;13.380;2023-12-14T04:25:04;6.42;91.05
69009;SHT31;56065;52.472;13.380;2023-12-14T04:27:29;6.38;91.34
69009;SHT31;56065;52.472;13.380;2023-12-14T04:29:55;6.44;91.18
69009;SHT31;56065;52.472;13.380;2023-12-14T04:32:20;6.40;91.04
69009;SHT31;56065;52.472;13.380;2023-12-14T04:34:46;6.37;91.16
69009;SHT31;56065;52.472;13.380;2023-12-14T04:37:12;6.44;91.18
69009;SHT31;56065;52.472;13.380;2023-12-14T04:39:37;6.36;91.17
69009;SHT31;56065;52.472;13.380;2023-12-14T04:42:02;6.42;91.24
69009;SHT31;56065;52.472;13.380;2023-12-14T04:44:28;6.54;90.92
69009;SHT31;56065;52.472;13.380;2023-12-14T04:46:53;6.42;90.88
69009;SHT31;56065;52.472;13.380;2023-12-14T04:49:19;6.41;91.20
69009;SHT31;56065;52.472;13.380;2023-12-14T04:51:45;6.45;91.13
69009;SHT31;56065;52.472;13.380;2023-12-14T04:54:10;6.44;91.21
69009;SHT31;56065;52.472;13.380;2023-12-14T04:56:35;6.54;91.08
69009;SHT31;56065;52.472;13.380;2023-12-14T04:59:01;6.51;91.20
69009;SHT31;56065;52.472;13.380;2023-12-14T05:01:26;6.51;91.20
69009;SHT31;56065;52.472;13.380;2023-12-14T05:03:55;6.44;91.07
69009;SHT31;56065;52.472;13.380;2023-12-14T05:06:21;6.42;91.01
69009;SHT31;56065;52.472;13.380;2023-12-14T05:08:46;6.44;90.97
69009;SHT31;56065;52.472;13.380;2023-12-14T05:11:13;6.47;90.93
69009;SHT31;56065;52.472;13.380;2023-12-14T05:13:39;6.44;90.98
69009;SHT31;56065;52.472;13.380;2023-12-14T05:16:04;6.41;91.00
69009;SHT31;56065;52.472;13.380;2023-12-14T05:18:30;6.38;90.94
69009;SHT31;56065;52.472;13.380;2023-12-14T05:20:55;6.48;90.82
69009;SHT31;56065;52.472;13.380;2023-12-14T05:23:20;6.48;91.16
69009;SHT31;56065;52.472;13.380;2023-12-14T05:25:46;6.41;91.22
69009;SHT31;56065;52.472;13.380;2023-12-14T05:28:11;6.47;91.46
69009;SHT31;56065;52.472;13.380;2023-12-14T05:30:36;6.27;91.43
69009;SHT31;56065;52.472;13.380;2023-12-14T05:33:02;6.30;91.42
69009;SHT31;56065;52.472;13.380;2023-12-14T05:35:28;6.38;91.38
69009;SHT31;56065;52.472;13.380;2023-12-14T05:37:53;6.38;91.49
69009;SHT31;56065;52.472;13.380;2023-12-14T05:40:19;6.45;91.32
69009;SHT31;56065;52.472;13.380;2023-12-14T05:42:44;6.52;91.13
69009;SHT31;56065;52.472;13.380;2023-12-14T05:45:09;6.52;91.18
69009;SHT31;56065;52.472;13.380;2023-12-14T05:47:35;6.45;91.06
69009;SHT31;56065;52.472;13.380;2023-12-14T05:50:01;6.45;91.62
69009;SHT31;56065;52.472;13.380;2023-12-14T05:52:27;6.50;91.72
69009;SHT31;56065;52.472;13.380;2023-12-14T05:54:52;6.47;91.30
69009;SHT31;56065;52.472;13.380;2023-12-14T05:57:18;6.40;91.56
69009;SHT31;56065;52.472;13.380;2023-12-14T05:59:43;6.50;91.56
69009;SHT31;56065;52.472;13.380;2023-12-14T06:02:08;6.47;91.50
69009;SHT31;56065;52.472;13.380;2023-12-14T06:04:34;6.45;91.44
69009;SHT31;56065;52.472;13.380;2023-12-14T06:06:59;6.38;91.63
69009;SHT31;56065;52.472;13.380;2023-12-14T06:09:25;6.48;91.35
69009;SHT31;56065;52.472;13.380;2023-12-14T06:12:01;6.41;91.45
69009;SHT31;56065;52.472;13.380;2023-12-14T06:14:27;6.48;91.26
69009;SHT31;56065;52.472;13.380;2023-12-14T06:16:53;6.42;91.27
69009;SHT31;56065;52.472;13.380;2023-12-14T06:19:18;6.47;91.14
69009;SHT31;56065;52.472;13.380;2023-12-14T06:21:44;6.48;91.98
69009;SHT31;56065;52.472;13.380;2023-12-14T06:24:09;6.55;91.46
69009;SHT31;56065;52.472;13.380;2023-12-14T06:26:34;6.48;91.08
69009;SHT31;56065;52.472;13.380;2023-12-14T06:29:00;6.52;90.82
69009;SHT31;56065;52.472;13.380;2023-12-14T06:31:25;6.55;90.81
69009;SHT31;56065;52.472;13.380;2023-12-14T06:33:50;6.51;91.47
69009;SHT31;56065;52.472;13.380;2023-12-14T06:36:16;6.60;91.02
69009;SHT31;56065;52.472;13.380;2023-12-14T06:38:45;6.51;90.74
69009;SHT31;56065;52.472;13.380;2023-12-14T06:41:23;6.45;90.91
69009;SHT31;56065;52.472;13.380;2023-12-14T06:43:49;6.52;91.15
69009;SHT31;56065;52.472;13.380;2023-12-14T06:46:14;6.50;90.88
69009;SHT31;56065;52.472;13.380;2023-12-14T06:48:40;6.52;91.40
69009;SHT31;56065;52.472;13.380;2023-12-14T06:51:06;6.50;90.66
69009;SHT31;56065;52.472;13.380;2023-12-14T06:53:31;6.51;90.98
69009;SHT31;56065;52.472;13.380;2023-12-14T06:55:56;6.60;91.20
69009;SHT31;56065;52.472;13.380;2023-12-14T06:58:22;6.48;91.09
69009;SHT31;56065;52.472;13.380;2023-12-14T07:00:47;6.47;90.85
69009;SHT31;56065;52.472;13.380;2023-12-14T07:03:13;6.54;90.81
69009;SHT31;56065;52.472;13.380;2023-12-14T07:05:39;6.55;90.97
69009;SHT31;56065;52.472;13.380;2023-12-14T07:08:04;6.61;91.07
69009;SHT31;56065;52.472;13.380;2023-12-14T07:10:29;6.48;90.50
69009;SHT31;56065;52.472;13.380;2023-12-14T07:12:55;6.55;90.53
69009;SHT31;56065;52.472;13.380;2023-12-14T07:15:20;6.54;90.56
69009;SHT31;56065;52.472;13.380;2023-12-14T07:17:45;6.52;90.70
69009;SHT31;56065;52.472;13.380;2023-12-14T07:20:11;6.44;90.83
69009;SHT31;56065;52.472;13.380;2023-12-14T07:22:37;6.51;90.94
69009;SHT31;56065;52.472;13.380;2023-12-14T07:25:03;6.50;90.74
69009;SHT31;56065;52.472;13.380;2023-12-14T07:27:28;6.41;90.61
69009;SHT31;56065;52.472;13.380;2023-12-14T07:29:54;6.51;90.65
69009;SHT31;56065;52.472;13.380;2023-12-14T07:32:19;6.57;90.83
69009;SHT31;56065;52.472;13.380;2023-12-14T07:34:44;6.50;90.30
69009;SHT31;56065;52.472;13.380;2023-12-14T07:37:10;6.44;90.20
69009;SHT31;56065;52.472;13.380;2023-12-14T07:39:37;6.51;90.44
69009;SHT31;56065;52.472;13.380;2023-12-14T07:42:02;6.57;90.37
69009;SHT31;56065;52.472;13.380;2023-12-14T07:44:27;6.61;90.58
69009;SHT31;56065;52.472;13.380;2023-12-14T07:46:59;6.44;90.34
69009;SHT31;56065;52.472;13.380;2023-12-14T07:49:25;6.51;90.49
69009;SHT31;56065;52.472;13.380;2023-12-14T07:51:50;6.60;90.30
69009;SHT31;56065;52.472;13.380;2023-12-14T07:54:17;6.57;90.31
69009;SHT31;56065;52.472;13.380;2023-12-14T07:56:42;6.55;90.11
69009;SHT31;56065;52.472;13.380;2023-12-14T07:59:07;6.60;90.07
69009;SHT31;56065;52.472;13.380;2023-12-14T08:01:33;6.70;89.93
69009;SHT31;56065;52.472;13.380;2023-12-14T08:03:59;6.65;89.47
69009;SHT31;56065;52.472;13.380;2023-12-14T08:06:25;6.57;90.08
69009;SHT31;56065;52.472;13.380;2023-12-14T08:08:50;6.64;90.05
69009;SHT31;56065;52.472;13.380;2023-12-14T08:11:16;6.68;90.00
69009;SHT31;56065;52.472;13.380;2023-12-14T08:13:41;6.70;90.14
69009;SHT31;56065;52.472;13.380;2023-12-14T08:16:09;6.65;90.19
69009;SHT31;56065;52.472;13.380;2023-12-14T08:18:36;6.67;89.99
69009;SHT31;56065;52.472;13.380;2023-12-14T08:21:02;6.70;89.97
69009;SHT31;56065;52.472;13.380;2023-12-14T08:23:28;6.64;90.21
69009;SHT31;56065;52.472;13.380;2023-12-14T08:25:55;6.64;89.95
69009;SHT31;56065;52.472;13.380;2023-12-14T08:28:23;6.68;89.68
69009;SHT31;56065;52.472;13.380;2023-12-14T08:30:48;6.64;89.72
69009;SHT31;56065;52.472;13.380;2023-12-14T08:33:14;6.50;90.26
69009;SHT31;56065;52.472;13.380;2023-12-14T08:35:39;6.45;90.66
69009;SHT31;56065;52.472;13.380;2023-12-14T08:38:04;6.33;90.64
69009;SHT31;56065;52.472;13.380;2023-12-14T08:40:30;6.36;90.38
69009;SHT31;56065;52.472;13.380;2023-12-14T08:42:56;6.24;91.36
69009;SHT31;56065;52.472;13.380;2023-12-14T08:45:22;6.33;90.83
69009;SHT31;56065;52.472;13.380;2023-12-14T08:47:47;6.26;90.27
69009;SHT31;56065;52.472;13.380;2023-12-14T08:50:12;6.34;90.47
69009;SHT31;56065;52.472;13.380;2023-12-14T08:52:38;6.41;90.62
69009;SHT31;56065;52.472;13.380;2023-12-14T08:55:03;6.51;90.26
69009;SHT31;56065;52.472;13.380;2023-12-14T08:57:29;6.55;90.15
69009;SHT31;56065;52.472;13.380;2023-12-14T08:59:56;6.58;90.09
69009;SHT31;56065;52.472;13.380;2023-12-14T09:02:21;6.63;90.03
69009;SHT31;56065;52.472;13.380;2023-12-14T09:04:47;6.74;89.85
69009;SHT31;56065;52.472;13.380;2023-12-14T09:07:12;6.64;89.73
69009;SHT31;56065;52.472;13.380;2023-12-14T09:09:37;6.72;89.68
69009;SHT31;56065;52.472;13.380;2023-12-14T09:12:03;6.77;89.61
69009;SHT31;56065;52.472;13.380;2023-12-14T09:14:28;6.79;89.14
69009;SHT31;56065;52.472;13.380;2023-12-14T09:16:54;6.75;89.25
69009;SHT31;56065;52.472;13.380;2023-12-14T09:19:20;6.78;89.27
69009;SHT31;56065;52.472;13.380;2023-12-14T09:21:45;6.88;89.27
69009;SHT31;56065;52.472;13.380;2023-12-14T09:24:11;6.77;89.35
69009;SHT31;56065;52.472;13.380;2023-12-14T09:26:36;6.87;89.07
69009;SHT31;56065;52.472;13.380;2023-12-14T09:29:01;6.81;89.00
69009;SHT31;56065;52.472;13.380;2023-12-14T09:31:27;6.89;89.51
69009;SHT31;56065;52.472;13.380;2023-12-14T09:33:53;6.98;89.42
69009;SHT31;56065;52.472;13.380;2023-12-14T09:36:18;6.98;89.03
69009;SHT31;56065;52.472;13.380;2023-12-14T09:38:44;7.02;89.07
69009;SHT31;56065;52.472;13.380;2023-12-14T09:41:11;6.99;89.35
69009;SHT31;56065;52.472;13.380;2023-12-14T09:43:37;6.91;89.52
69009;SHT31;56065;52.472;13.380;2023-12-14T09:46:03;6.96;89.30
69009;SHT31;56065;52.472;13.380;2023-12-14T09:48:28;7.02;89.24
69009;SHT31;56065;52.472;13.380;2023-12-14T09:50:55;7.02;88.92
69009;SHT31;56065;52.472;13.380;2023-12-14T09:53:20;6.96;89.39
69009;SHT31;56065;52.472;13.380;2023-12-14T09:55:46;6.93;89.41
69009;SHT31;56065;52.472;13.380;2023-12-14T09:58:12;7.03;89.38
69009;SHT31;56065;52.472;13.380;2023-12-14T10:00:41;7.01;89.72
69009;SHT31;56065;52.472;13.380;2023-12-14T10:03:24;7.05;89.84
69009;SHT31;56065;52.472;13.380;2023-12-14T10:05:51;7.08;89.55
69009;SHT31;56065;52.472;13.380;2023-12-14T10:08:17;7.10;89.30
69009;SHT31;56065;52.472;13.380;2023-12-14T10:10:44;7.16;89.64
69009;SHT31;56065;52.472;13.380;2023-12-14T10:13:09;7.09;89.35
69009;SHT31;56065;52.472;13.380;2023-12-14T10:15:42;7.16;89.32
69009;SHT31;56065;52.472;13.380;2023-12-14T10:18:08;7.19;88.77
69009;SHT31;56065;52.472;13.380;2023-12-14T10:20:33;7.20;89.01
69009;SHT31;56065;52.472;13.380;2023-12-14T10:22:59;7.12;89.00
69009;SHT31;56065;52.472;13.380;2023-12-14T10:25:24;7.16;89.04
69009;SHT31;56065;52.472;13.380;2023-12-14T10:27:50;7.16;88.90
69009;SHT31;56065;52.472;13.380;2023-12-14T10:30:18;7.12;88.97
69009;SHT31;56065;52.472;13.380;2023-12-14T10:32:47;7.08;88.77
69009;SHT31;56065;52.472;13.380;2023-12-14T10:35:12;7.16;89.07
69009;SHT31;56065;52.472;13.380;2023-12-14T10:37:38;7.15;88.63
69009;SHT31;56065;52.472;13.380;2023-12-14T10:40:09;7.19;88.67
69009;SHT31;56065;52.472;13.380;2023-12-14T10:42:36;7.23;88.43
69009;SHT31;56065;52.472;13.380;2023-12-14T10:45:03;7.13;88.57
69009;SHT31;56065;52.472;13.380;2023-12-14T10:47:30;7.18;88.10
69009;SHT31;56065;52.472;13.380;2023-12-14T10:49:55;7.18;88.41
69009;SHT31;56065;52.472;13.380;2023-12-14T10:52:22;7.23;88.41
69009;SHT31;56065;52.472;13.380;2023-12-14T10:54:50;7.23;88.54
69009;SHT31;56065;52.472;13.380;2023-12-14T10:57:17;7.24;88.20
69009;SHT31;56065;52.472;13.380;2023-12-14T10:59:42;7.26;88.24
69009;SHT31;56065;52.472;13.380;2023-12-14T11:02:09;7.30;88.64
69009;SHT31;56065;52.472;13.380;2023-12-14T11:07:47;7.33;88.43
69009;SHT31;56065;52.472;13.380;2023-12-14T11:10:14;7.42;88.48
69009;SHT31;56065;52.472;13.380;2023-12-14T11:13:04;7.36;87.97
69009;SHT31;56065;52.472;13.380;2023-12-14T11:15:33;7.37;87.57
69009;SHT31;56065;52.472;13.380;2023-12-14T11:18:23;7.32;87.78
69009;SHT31;56065;52.472;13.380;2023-12-14T11:21:00;7.27;87.98
69009;SHT31;56065;52.472;13.380;2023-12-14T11:23:44;7.29;88.00
69009;SHT31;56065;52.472;13.380;2023-12-14T11:26:10;7.33;88.50
69009;SHT31;56065;52.472;13.380;2023-12-14T11:28:39;7.32;87.95
69009;SHT31;56065;52.472;13.380;2023-12-14T11:31:11;7.43;88.21
69009;SHT31;56065;52.472;13.380;2023-12-14T11:33:37;7.42;87.36
69009;SHT31;56065;52.472;13.380;2023-12-14T11:36:03;7.40;87.51
69009;SHT31;56065;52.472;13.380;2023-12-14T11:38:29;7.37;87.44
69009;SHT31;56065;52.472;13.380;2023-12-14T11:40:54;7.29;86.89
69009;SHT31;56065;52.472;13.380;2023-12-14T11:43:19;7.34;87.55
69009;SHT31;56065;52.472;13.380;2023-12-14T11:45:50;7.39;87.32
69009;SHT31;56065;52.472;13.380;2023-12-14T11:48:15;7.32;86.96
69009;SHT31;56065;52.472;13.380;2023-12-14T11:50:42;7.32;87.00
69009;SHT31;56065;52.472;13.380;2023-12-14T11:53:08;7.24;87.49
69009;SHT31;56065;52.472;13.380;2023-12-14T11:55:35;7.33;87.82
69009;SHT31;56065;52.472;13.380;2023-12-14T11:58:00;7.34;87.67
69009;SHT31;56065;52.472;13.380;2023-12-14T12:00:27;7.22;87.54
69009;SHT31;56065;52.472;13.380;2023-12-14T12:05:40;7.30;87.35
69009;SHT31;56065;52.472;13.380;2023-12-14T12:08:06;7.34;87.87
69009;SHT31;56065;52.472;13.380;2023-12-14T12:10:32;7.42;88.05
69009;SHT31;56065;52.472;13.380;2023-12-14T12:13:02;7.39;87.97
69009;SHT31;56065;52.472;13.380;2023-12-14T12:15:30;7.44;87.50
69009;SHT31;56065;52.472;13.380;2023-12-14T12:17:57;7.43;87.54
69009;SHT31;56065;52.472;13.380;2023-12-14T12:20:22;7.36;87.58
69009;SHT31;56065;52.472;13.380;2023-12-14T12:22:47;7.43;87.27
69009;SHT31;56065;52.472;13.380;2023-12-14T12:25:13;7.40;86.95
69009;SHT31;56065;52.472;13.380;2023-12-14T12:27:38;7.47;87.13
69009;SHT31;56065;52.472;13.380;2023-12-14T12:30:04;7.43;87.15
69009;SHT31;56065;52.472;13.380;2023-12-14T12:32:29;7.43;87.37
69009;SHT31;56065;52.472;13.380;2023-12-14T12:34:55;7.43;87.45
69009;SHT31;56065;52.472;13.380;2023-12-14T12:37:20;7.40;87.28
69009;SHT31;56065;52.472;13.380;2023-12-14T12:39:46;7.37;87.67
69009;SHT31;56065;52.472;13.380;2023-12-14T12:42:12;7.42;87.48
69009;SHT31;56065;52.472;13.380;2023-12-14T12:44:37;7.40;87.59
69009;SHT31;56065;52.472;13.380;2023-12-14T12:47:03;7.40;87.18
69009;SHT31;56065;52.472;13.380;2023-12-14T12:49:30;7.40;87.27
69009;SHT31;56065;52.472;13.380;2023-12-14T12:51:56;7.46;87.00
69009;SHT31;56065;52.472;13.380;2023-12-14T12:54:21;7.44;88.05
69009;SHT31;56065;52.472;13.380;2023-12-14T12:56:46;7.43;87.54
69009;SHT31;56065;52.472;13.380;2023-12-14T12:59:12;7.46;87.60
69009;SHT31;56065;52.472;13.380;2023-12-14T13:01:39;7.44;87.48
69009;SHT31;56065;52.472;13.380;2023-12-14T13:04:04;7.40;87.62
69009;SHT31;56065;52.472;13.380;2023-12-14T13:06:42;7.34;87.62
69009;SHT31;56065;52.472;13.380;2023-12-14T13:09:07;7.37;87.39
69009;SHT31;56065;52.472;13.380;2023-12-14T13:11:33;7.40;87.28
69009;SHT31;56065;52.472;13.380;2023-12-14T13:13:58;7.46;87.98
69009;SHT31;56065;52.472;13.380;2023-12-14T13:16:26;7.43;87.64
69009;SHT31;56065;52.472;13.380;2023-12-14T13:18:51;7.43;87.71
69009;SHT31;56065;52.472;13.380;2023-12-14T13:21:16;7.39;87.37
69009;SHT31;56065;52.472;13.380;2023-12-14T13:23:42;7.36;87.76
69009;SHT31;56065;52.472;13.380;2023-12-14T13:26:09;7.36;88.24
69009;SHT31;56065;52.472;13.380;2023-12-14T13:28:34;7.43;87.81
69009;SHT31;56065;52.472;13.380;2023-12-14T13:31:00;7.42;87.68
69009;SHT31;56065;52.472;13.380;2023-12-14T13:33:25;7.39;87.37
69009;SHT31;56065;52.472;13.380;2023-12-14T13:35:50;7.39;87.15
69009;SHT31;56065;52.472;13.380;2023-12-14T13:38:16;7.39;87.39
69009;SHT31;56065;52.472;13.380;2023-12-14T13:40:41;7.37;87.60
69009;SHT31;56065;52.472;13.380;2023-12-14T13:43:06;7.37;88.10
69009;SHT31;56065;52.472;13.380;2023-12-14T13:45:36;7.30;87.94
69009;SHT31;56065;52.472;13.380;2023-12-14T13:48:02;7.23;87.66
69009;SHT31;56065;52.472;13.380;2023-12-14T13:50:27;7.30;87.69
69009;SHT31;56065;52.472;13.380;2023-12-14T13:52:53;7.36;87.98
69009;SHT31;56065;52.472;13.380;2023-12-14T13:55:18;7.33;87.25
69009;SHT31;56065;52.472;13.380;2023-12-14T13:57:44;7.33;87.47
69009;SHT31;56065;52.472;13.380;2023-12-14T14:00:11;7.29;87.51
69009;SHT31;56065;52.472;13.380;2023-12-14T14:02:36;7.26;87.59
69009;SHT31;56065;52.472;13.380;2023-12-14T14:05:02;7.20;87.96
69009;SHT31;56065;52.472;13.380;2023-12-14T14:07:28;7.13;87.92
69009;SHT31;56065;52.472;13.380;2023-12-14T14:09:53;7.18;87.93
69009;SHT31;56065;52.472;13.380;2023-12-14T14:12:19;7.13;87.77
69009;SHT31;56065;52.472;13.380;2023-12-14T14:14:44;7.10;87.81
69009;SHT31;56065;52.472;13.380;2023-12-14T14:17:09;7.10;88.40
69009;SHT31;56065;52.472;13.380;2023-12-14T14:19:36;7.20;88.07
69009;SHT31;56065;52.472;13.380;2023-12-14T14:22:01;7.08;87.70
69009;SHT31;56065;52.472;13.380;2023-12-14T14:24:27;6.99;87.88
69009;SHT31;56065;52.472;13.380;2023-12-14T14:26:52;6.92;88.33
69009;SHT31;56065;52.472;13.380;2023-12-14T14:29:17;6.93;88.45
69009;SHT31;56065;52.472;13.380;2023-12-14T14:31:44;6.93;88.16
69009;SHT31;56065;52.472;13.380;2023-12-14T14:34:09;6.81;88.16
69009;SHT31;56065;52.472;13.380;2023-12-14T14:36:35;6.84;88.53
69009;SHT31;56065;52.472;13.380;2023-12-14T14:39:00;6.82;87.84
69009;SHT31;56065;52.472;13.380;2023-12-14T14:41:25;6.72;88.31
69009;SHT31;56065;52.472;13.380;2023-12-14T14:43:51;6.77;88.31
69009;SHT31;56065;52.472;13.380;2023-12-14T14:46:16;6.82;88.18
69009;SHT31;56065;52.472;13.380;2023-12-14T14:48:43;6.81;88.16
69009;SHT31;56065;52.472;13.380;2023-12-14T14:51:08;6.87;88.09
69009;SHT31;56065;52.472;13.380;2023-12-14T14:53:33;6.78;88.54
69009;SHT31;56065;52.472;13.380;2023-12-14T14:56:01;6.79;88.53
69009;SHT31;56065;52.472;13.380;2023-12-14T14:58:27;6.84;88.70
69009;SHT31;56065;52.472;13.380;2023-12-14T15:00:52;6.84;88.49
69009;SHT31;56065;52.472;13.380;2023-12-14T15:03:18;6.88;88.24
69009;SHT31;56065;52.472;13.380;2023-12-14T15:05:45;6.78;88.29
69009;SHT31;56065;52.472;13.380;2023-12-14T15:08:10;6.81;88.62
69009;SHT31;56065;52.472;13.380;2023-12-14T15:10:36;6.84;88.33
69009;SHT31;56065;52.472;13.380;2023-12-14T15:13:01;6.82;88.17
69009;SHT31;56065;52.472;13.380;2023-12-14T15:15:27;6.87;88.47
69009;SHT31;56065;52.472;13.380;2023-12-14T15:17:52;6.88;88.26
69009;SHT31;56065;52.472;13.380;2023-12-14T15:20:18;6.87;88.19
69009;SHT31;56065;52.472;13.380;2023-12-14T15:22:43;6.88;88.17
69009;SHT31;56065;52.472;13.380;2023-12-14T15:25:08;6.82;88.49
69009;SHT31;56065;52.472;13.380;2023-12-14T15:27:34;6.78;88.49